Time;durP1;ratioP1;P1;durP2;ratioP2;P2;SDS_P1;SDS_P2;PMS_P1;PMS_P2;Temp;Humidity;BMP_temperature;BMP_pressure;BME280_temperature;BME280_humidity;BME280_pressure;Samples;Min_cycle;Max_cycle;Signal;HPM_P1;HPM_P2
2021/08/29 00:00:26;;;;;;;2.10;1.63;;;;;;;;;;5099381;28;20285;-64
2021/08/29 00:02:56;;;;;;;3.50;1.20;;;;;;;;;;5100402;28;20588;-64
2021/08/29 00:05:24;;;;;;;5.67;3.00;;;;;;;;;;5103226;28;20221;-64
2021/08/29 00:07:52;;;;;;;4.63;1.70;;;;;;;;;;5100090;28;20293;-65
2021/08/29 00:10:20;;;;;;;1.97;1.27;;;;;;;;;;5107220;28;20212;-64
2021/08/29 00:12:48;;;;;;;3.23;1.30;;;;;;;;;;5120100;28;20295;-64
2021/08/29 00:15:16;;;;;;;2.40;1.80;;;;;;;;;;5100238;28;20232;-64
2021/08/29 00:17:44;;;;;;;1.70;1.60;;;;;;;;;;5109770;28;20288;-64
2021/08/29 00:20:14;;;;;;;2.10;1.63;;;;;;;;;;5099521;28;20296;-64
2021/08/29 00:22:42;;;;;;;2.40;1.60;;;;;;;;;;5107616;28;20204;-64
2021/08/29 00:25:10;;;;;;;3.20;2.07;;;;;;;;;;5109085;28;20254;-64
2021/08/29 00:27:38;;;;;;;3.00;1.63;;;;;;;;;;5109275;28;20209;-64
2021/08/29 00:30:07;;;;;;;1.53;1.43;;;;;;;;;;5119286;28;20284;-64
2021/08/29 00:32:35;;;;;;;4.77;2.07;;;;;;;;;;5098661;28;20678;-64
2021/08/29 00:35:03;;;;;;;2.87;1.60;;;;;;;;;;5114862;28;20227;-64
2021/08/29 00:37:32;;;;;;;2.23;1.60;;;;;;;;;;5099254;28;20201;-64
2021/08/29 00:40:00;;;;;;;1.50;1.40;;;;;;;;;;5098716;28;20276;-64
2021/08/29 00:42:28;;;;;;;4.47;1.40;;;;;;;;;;5099332;28;20288;-64
2021/08/29 00:44:56;;;;;;;3.70;1.97;;;;;;;;;;5099970;28;20222;-64
2021/08/29 00:47:24;;;;;;;3.67;1.70;;;;;;;;;;5103508;28;20283;-64
2021/08/29 00:49:52;;;;;;;2.60;1.50;;;;;;;;;;5119228;28;20622;-65
2021/08/29 00:52:20;;;;;;;2.10;1.90;;;;;;;;;;5098971;28;20200;-65
2021/08/29 00:54:50;;;;;;;2.43;1.90;;;;;;;;;;5098988;28;20576;-65
2021/08/29 00:57:18;;;;;;;1.43;1.33;;;;;;;;;;5115481;28;20219;-64
2021/08/29 00:59:46;;;;;;;2.43;1.90;;;;;;;;;;5117190;28;20280;-64
2021/08/29 01:02:15;;;;;;;2.47;1.63;;;;;;;;;;5117211;28;20300;-65
2021/08/29 01:04:45;;;;;;;2.03;1.37;;;;;;;;;;5117779;28;20324;-64
2021/08/29 01:07:18;;;;;;;2.30;1.77;;;;;;;;;;5117895;28;20276;-64
2021/08/29 01:09:48;;;;;;;1.77;1.60;;;;;;;;;;5111757;28;20284;-64
2021/08/29 01:12:18;;;;;;;3.73;1.57;;;;;;;;;;5106390;28;20224;-64
2021/08/29 01:14:48;;;;;;;4.47;1.77;;;;;;;;;;5097952;28;20276;-64
2021/08/29 01:17:18;;;;;;;2.43;1.70;;;;;;;;;;5103735;28;20197;-65
2021/08/29 01:19:48;;;;;;;5.30;1.60;;;;;;;;;;5118691;28;20288;-64
2021/08/29 01:22:17;;;;;;;1.90;1.77;;;;;;;;;;5110041;28;20208;-64
2021/08/29 01:24:46;;;;;;;2.33;2.03;;;;;;;;;;5106600;28;20303;-64
2021/08/29 01:27:18;;;;;;;1.70;1.50;;;;;;;;;;5102325;28;20215;-64
2021/08/29 01:29:48;;;;;;;2.50;2.03;;;;;;;;;;5099346;28;20221;-65
2021/08/29 01:32:16;;;;;;;2.53;1.90;;;;;;;;;;5105567;28;20204;-64
2021/08/29 01:34:45;;;;;;;2.80;1.67;;;;;;;;;;5108696;28;20221;-64
2021/08/29 01:37:14;;;;;;;2.03;1.60;;;;;;;;;;5102359;28;20285;-64
2021/08/29 01:39:42;;;;;;;3.30;2.87;;;;;;;;;;5102925;28;20197;-64
2021/08/29 01:42:10;;;;;;;2.90;1.87;;;;;;;;;;5097957;28;20201;-64
2021/08/29 01:44:39;;;;;;;3.77;2.13;;;;;;;;;;5102391;28;20223;-64
2021/08/29 01:47:09;;;;;;;4.50;2.83;;;;;;;;;;5099661;28;20295;-65
2021/08/29 01:49:37;;;;;;;1.63;1.53;;;;;;;;;;5099403;28;20229;-64
2021/08/29 01:52:05;;;;;;;2.40;2.03;;;;;;;;;;5102620;28;20203;-65
2021/08/29 01:54:33;;;;;;;5.47;2.13;;;;;;;;;;5111961;28;20221;-64
2021/08/29 01:57:02;;;;;;;2.17;1.97;;;;;;;;;;5110352;28;20237;-65
2021/08/29 01:59:31;;;;;;;4.33;2.23;;;;;;;;;;5106141;28;20280;-65
2021/08/29 02:01:59;;;;;;;6.40;2.60;;;;;;;;;;5097913;28;20547;-65
2021/08/29 02:04:29;;;;;;;3.07;1.77;;;;;;;;;;5101487;28;20235;-64
2021/08/29 02:07:11;;;;;;;3.50;2.30;;;;;;;;;;5100524;28;20610;-65
2021/08/29 02:09:40;;;;;;;2.13;1.93;;;;;;;;;;5109071;28;20284;-65
2021/08/29 02:12:09;;;;;;;2.43;2.03;;;;;;;;;;5117637;28;20713;-65
2021/08/29 02:14:41;;;;;;;3.93;1.90;;;;;;;;;;5116401;28;20308;-64
2021/08/29 02:17:11;;;;;;;2.27;2.00;;;;;;;;;;5114482;28;20192;-65
2021/08/29 02:19:42;;;;;;;4.40;1.97;;;;;;;;;;5112492;28;20640;-64
2021/08/29 02:22:10;;;;;;;2.80;1.97;;;;;;;;;;5106994;28;20202;-64
2021/08/29 02:24:39;;;;;;;2.53;2.03;;;;;;;;;;5107903;28;20296;-64
2021/08/29 02:27:07;;;;;;;3.40;1.90;;;;;;;;;;5107603;28;20632;-65
2021/08/29 02:29:35;;;;;;;2.63;2.30;;;;;;;;;;5101587;28;20606;-64
2021/08/29 02:32:03;;;;;;;3.90;2.13;;;;;;;;;;5113478;28;20224;-64
2021/08/29 02:34:31;;;;;;;1.77;1.67;;;;;;;;;;5115609;28;20222;-64
2021/08/29 02:37:01;;;;;;;4.20;2.27;;;;;;;;;;5121114;28;20200;-65
2021/08/29 02:39:30;;;;;;;2.47;2.13;;;;;;;;;;5114318;28;20660;-65
2021/08/29 02:41:58;;;;;;;6.73;2.27;;;;;;;;;;5101883;28;20201;-64
2021/08/29 02:44:27;;;;;;;2.93;2.10;;;;;;;;;;5101116;28;20221;-64
2021/08/29 02:46:55;;;;;;;4.07;2.40;;;;;;;;;;5107791;28;20205;-65
2021/08/29 02:49:23;;;;;;;2.27;2.00;;;;;;;;;;5110617;28;20232;-65
2021/08/29 02:51:51;;;;;;;2.47;2.23;;;;;;;;;;5108043;27;20221;-65
2021/08/29 02:54:21;;;;;;;2.83;2.63;;;;;;;;;;5107104;28;20651;-64
2021/08/29 02:56:50;;;;;;;3.83;2.20;;;;;;;;;;5101472;28;20209;-64
2021/08/29 02:59:18;;;;;;;2.37;2.10;;;;;;;;;;5101162;28;20261;-64
2021/08/29 03:01:46;;;;;;;4.60;2.20;;;;;;;;;;5100595;28;20203;-64
2021/08/29 03:04:15;;;;;;;5.90;2.27;;;;;;;;;;5106440;28;20228;-64
2021/08/29 03:06:43;;;;;;;3.03;2.20;;;;;;;;;;5117950;28;20212;-65
2021/08/29 03:09:11;;;;;;;3.43;2.40;;;;;;;;;;5105011;28;20197;-65
2021/08/29 03:11:41;;;;;;;2.37;2.00;;;;;;;;;;5121125;28;20230;-65
2021/08/29 03:14:08;;;;;;;3.90;2.10;;;;;;;;;;5119628;28;20221;-65
2021/08/29 03:16:37;;;;;;;2.80;1.90;;;;;;;;;;5115915;28;20194;-65
2021/08/29 03:19:05;;;;;;;3.30;2.23;;;;;;;;;;5100159;28;20559;-64
2021/08/29 03:21:33;;;;;;;4.17;2.83;;;;;;;;;;5100582;28;20208;-65
2021/08/29 03:24:01;;;;;;;2.90;2.20;;;;;;;;;;5100996;28;20224;-65
2021/08/29 03:26:29;;;;;;;2.53;2.27;;;;;;;;;;5116106;28;20197;-65
2021/08/29 03:28:59;;;;;;;2.20;1.93;;;;;;;;;;5100696;28;20212;-65
2021/08/29 03:31:28;;;;;;;3.57;2.27;;;;;;;;;;5099636;28;20274;-64
2021/08/29 03:33:58;;;;;;;2.30;2.10;;;;;;;;;;5099620;28;20236;-65
2021/08/29 03:36:28;;;;;;;3.80;2.23;;;;;;;;;;5118380;28;20722;-65
2021/08/29 03:38:57;;;;;;;2.53;2.33;;;;;;;;;;5118815;28;20284;-65
2021/08/29 03:41:25;;;;;;;4.97;2.47;;;;;;;;;;5120896;28;20201;-65
2021/08/29 03:43:53;;;;;;;3.17;2.40;;;;;;;;;;5120273;28;20217;-65
2021/08/29 03:46:23;;;;;;;3.07;2.23;;;;;;;;;;5105108;28;20266;-65
2021/08/29 03:48:51;;;;;;;2.17;1.97;;;;;;;;;;5103804;28;20197;-64
2021/08/29 03:51:20;;;;;;;3.00;2.47;;;;;;;;;;5099598;28;20780;-64
2021/08/29 03:53:49;;;;;;;4.67;2.50;;;;;;;;;;5116118;28;20281;-65
2021/08/29 03:56:17;;;;;;;2.37;2.13;;;;;;;;;;5102186;28;20568;-64
2021/08/29 03:58:45;;;;;;;2.70;2.37;;;;;;;;;;5099869;28;20280;-64
2021/08/29 04:01:14;;;;;;;6.83;3.10;;;;;;;;;;5099541;28;20233;-64
2021/08/29 04:03:43;;;;;;;4.73;2.50;;;;;;;;;;5104614;28;20197;-65
2021/08/29 04:06:13;;;;;;;3.13;2.73;;;;;;;;;;5105553;28;20241;-64
2021/08/29 04:08:50;;;;;;;4.30;2.40;;;;;;;;;;5120282;28;20570;-65
2021/08/29 04:11:22;;;;;;;4.50;2.47;;;;;;;;;;5119820;28;20309;-64
2021/08/29 04:13:50;;;;;;;3.10;2.77;;;;;;;;;;5120195;28;20315;-64
2021/08/29 04:16:18;;;;;;;5.07;2.80;;;;;;;;;;5105495;28;20202;-65
2021/08/29 04:18:48;;;;;;;2.80;2.10;;;;;;;;;;5103809;28;20207;-64
2021/08/29 04:21:17;;;;;;;5.10;3.00;;;;;;;;;;5105077;28;20315;-64
2021/08/29 04:23:45;;;;;;;3.23;2.40;;;;;;;;;;5099208;28;20243;-64
2021/08/29 04:26:13;;;;;;;3.77;3.10;;;;;;;;;;5104024;28;20208;-65
2021/08/29 04:28:41;;;;;;;2.60;2.30;;;;;;;;;;5119601;28;20970;-64
2021/08/29 04:31:10;;;;;;;5.63;3.07;;;;;;;;;;5117894;28;20215;-65
2021/08/29 04:33:38;;;;;;;3.13;2.60;;;;;;;;;;5098906;28;20197;-64
2021/08/29 04:36:09;;;;;;;3.87;2.20;;;;;;;;;;5107646;28;20201;-64
2021/08/29 04:38:37;;;;;;;5.23;2.83;;;;;;;;;;5102557;28;20199;-64
2021/08/29 04:41:05;;;;;;;2.80;2.50;;;;;;;;;;5120020;28;20289;-65
2021/08/29 04:43:33;;;;;;;4.00;2.60;;;;;;;;;;5116577;28;20201;-65
2021/08/29 04:46:01;;;;;;;3.60;2.83;;;;;;;;;;5098213;28;20336;-65
2021/08/29 04:48:29;;;;;;;4.57;2.70;;;;;;;;;;5106148;28;20204;-64
2021/08/29 04:50:57;;;;;;;5.57;2.80;;;;;;;;;;5107015;28;20247;-64
2021/08/29 04:53:26;;;;;;;6.07;2.80;;;;;;;;;;5114338;28;20217;-64
2021/08/29 04:55:54;;;;;;;6.67;2.97;;;;;;;;;;5109304;28;20224;-64
2021/08/29 04:58:22;;;;;;;5.00;3.07;;;;;;;;;;5105921;28;20201;-63
2021/08/29 05:00:50;;;;;;;4.27;2.83;;;;;;;;;;5098507;28;20206;-63
2021/08/29 05:03:18;;;;;;;5.40;3.27;;;;;;;;;;5103447;28;20193;-63
2021/08/29 05:05:46;;;;;;;4.63;2.90;;;;;;;;;;5113169;28;20722;-63
2021/08/29 05:10:57;;;;;;;4.37;3.13;;;;;;;;;;5097963;28;20211;-63
2021/08/29 05:13:25;;;;;;;6.40;3.40;;;;;;;;;;5118165;28;20311;-63
2021/08/29 05:15:55;;;;;;;3.73;3.40;;;;;;;;;;5106635;28;20284;-63
2021/08/29 05:18:23;;;;;;;4.20;3.30;;;;;;;;;;5112200;28;20204;-62
2021/08/29 05:20:51;;;;;;;5.30;3.27;;;;;;;;;;5118587;28;20215;-63
2021/08/29 05:23:32;;;;;;;5.50;3.07;;;;;;;;;;5116857;28;20640;-63
2021/08/29 05:26:02;;;;;;;6.03;2.63;;;;;;;;;;5112402;27;20235;-63
2021/08/29 05:28:30;;;;;;;5.80;3.10;;;;;;;;;;5103233;28;20286;-62
2021/08/29 05:30:57;;;;;;;4.67;3.17;;;;;;;;;;5104930;28;20203;-63
2021/08/29 05:33:26;;;;;;;3.47;3.17;;;;;;;;;;5105657;28;20217;-61
2021/08/29 05:35:56;;;;;;;5.57;3.57;;;;;;;;;;5105562;28;20292;-62
2021/08/29 05:38:24;;;;;;;6.00;3.63;;;;;;;;;;5098445;28;20284;-62
2021/08/29 05:40:52;;;;;;;5.30;3.37;;;;;;;;;;5097297;28;20201;-62
2021/08/29 05:43:21;;;;;;;7.00;3.83;;;;;;;;;;5097365;28;20201;-62
2021/08/29 05:45:49;;;;;;;5.87;4.00;;;;;;;;;;5100987;28;20204;-64
2021/08/29 05:48:17;;;;;;;4.40;3.93;;;;;;;;;;5103640;28;20200;-63
2021/08/29 05:50:45;;;;;;;4.67;3.57;;;;;;;;;;5103915;28;20755;-62
2021/08/29 05:53:13;;;;;;;4.83;3.90;;;;;;;;;;5102422;28;20225;-62
2021/08/29 05:55:41;;;;;;;4.63;3.90;;;;;;;;;;5117924;28;20224;-62
2021/08/29 05:58:09;;;;;;;4.10;3.70;;;;;;;;;;5100124;28;20265;-62
2021/08/29 06:00:39;;;;;;;5.37;3.60;;;;;;;;;;5107830;28;20211;-63
2021/08/29 06:03:07;;;;;;;4.30;3.43;;;;;;;;;;5117077;28;21622;-63
2021/08/29 06:05:35;;;;;;;5.50;4.23;;;;;;;;;;5116094;28;20233;-63
2021/08/29 06:08:04;;;;;;;4.60;3.83;;;;;;;;;;5097057;28;20202;-62
2021/08/29 06:10:32;;;;;;;5.53;3.83;;;;;;;;;;5097597;28;20205;-62
2021/08/29 06:13:00;;;;;;;3.97;3.50;;;;;;;;;;5109848;28;20714;-62
2021/08/29 06:15:28;;;;;;;4.37;3.67;;;;;;;;;;5105238;28;20700;-63
2021/08/29 06:17:57;;;;;;;5.00;3.73;;;;;;;;;;5102355;28;20247;-62
2021/08/29 06:20:26;;;;;;;5.70;3.67;;;;;;;;;;5106330;28;20204;-61
2021/08/29 06:22:54;;;;;;;5.40;3.90;;;;;;;;;;5097580;28;20269;-62
2021/08/29 06:25:22;;;;;;;4.73;3.50;;;;;;;;;;5109691;28;20602;-61
2021/08/29 06:27:50;;;;;;;4.10;3.60;;;;;;;;;;5097636;28;20207;-63
2021/08/29 06:30:18;;;;;;;5.10;4.00;;;;;;;;;;5096775;28;20216;-63
2021/08/29 06:32:46;;;;;;;4.23;3.27;;;;;;;;;;5097573;28;20221;-63
2021/08/29 06:35:15;;;;;;;5.43;4.40;;;;;;;;;;5097002;28;20658;-63
2021/08/29 06:37:43;;;;;;;3.97;3.13;;;;;;;;;;5097675;28;20210;-63
2021/08/29 06:40:12;;;;;;;4.43;3.70;;;;;;;;;;5097253;28;20247;-63
2021/08/29 06:42:41;;;;;;;3.90;3.50;;;;;;;;;;5097663;28;20209;-63
2021/08/29 06:45:09;;;;;;;5.73;3.67;;;;;;;;;;5097018;28;20763;-61
2021/08/29 06:47:37;;;;;;;5.07;3.73;;;;;;;;;;5097384;28;20206;-60
2021/08/29 06:50:06;;;;;;;6.00;3.70;;;;;;;;;;5104402;28;20236;-61
2021/08/29 06:52:35;;;;;;;4.53;3.77;;;;;;;;;;5107130;28;20201;-61
2021/08/29 06:55:03;;;;;;;3.83;3.43;;;;;;;;;;5117475;28;20225;-62
2021/08/29 06:57:31;;;;;;;4.73;4.27;;;;;;;;;;5117612;28;20362;-62
2021/08/29 06:59:59;;;;;;;4.40;3.53;;;;;;;;;;5117267;28;20660;-61
2021/08/29 07:02:29;;;;;;;5.57;3.53;;;;;;;;;;5117342;28;20209;-63
2021/08/29 07:04:57;;;;;;;4.60;4.20;;;;;;;;;;5117425;28;20242;-61
2021/08/29 07:07:25;;;;;;;5.77;4.10;;;;;;;;;;5117388;28;20220;-61
2021/08/29 07:09:54;;;;;;;6.23;3.97;;;;;;;;;;5118587;28;20223;-63
2021/08/29 07:12:22;;;;;;;5.73;4.47;;;;;;;;;;5120952;28;20212;-61
2021/08/29 07:14:50;;;;;;;3.90;3.43;;;;;;;;;;5120728;28;20243;-61
2021/08/29 07:17:19;;;;;;;5.77;4.17;;;;;;;;;;5121173;28;20216;-61
2021/08/29 07:19:47;;;;;;;5.37;3.80;;;;;;;;;;5121169;27;20215;-61
2021/08/29 07:22:15;;;;;;;4.33;3.80;;;;;;;;;;5120751;28;20208;-61
2021/08/29 07:24:43;;;;;;;6.53;4.30;;;;;;;;;;5121141;28;20217;-61
2021/08/29 07:27:12;;;;;;;5.23;4.43;;;;;;;;;;5106426;28;20669;-61
2021/08/29 07:29:40;;;;;;;6.27;4.87;;;;;;;;;;5100591;28;20220;-62
2021/08/29 07:32:08;;;;;;;7.30;4.37;;;;;;;;;;5100237;28;20713;-63
2021/08/29 07:34:37;;;;;;;5.57;4.97;;;;;;;;;;5100640;28;20245;-62
2021/08/29 07:37:05;;;;;;;6.83;4.90;;;;;;;;;;5100260;28;20210;-62
2021/08/29 07:39:33;;;;;;;7.07;4.70;;;;;;;;;;5100194;28;20582;-62
2021/08/29 07:42:01;;;;;;;13.43;6.87;;;;;;;;;;5100295;28;20233;-62
2021/08/29 07:44:30;;;;;;;5.83;4.80;;;;;;;;;;5100013;28;20316;-62
2021/08/29 07:46:58;;;;;;;5.60;4.53;;;;;;;;;;5099670;28;20875;-62
2021/08/29 07:49:26;;;;;;;6.83;4.13;;;;;;;;;;5104627;28;20252;-62
2021/08/29 07:51:54;;;;;;;5.30;4.50;;;;;;;;;;5106918;28;20216;-62
2021/08/29 07:54:22;;;;;;;5.90;5.10;;;;;;;;;;5120474;28;20709;-62
2021/08/29 07:56:50;;;;;;;5.93;4.87;;;;;;;;;;5120257;28;20287;-62
2021/08/29 07:59:18;;;;;;;9.20;5.13;;;;;;;;;;5119929;28;20204;-62
2021/08/29 08:01:47;;;;;;;6.50;5.47;;;;;;;;;;5119915;28;20208;-62
2021/08/29 08:04:16;;;;;;;6.60;5.70;;;;;;;;;;5121702;28;20245;-62
2021/08/29 08:06:44;;;;;;;5.73;5.13;;;;;;;;;;5122106;28;20206;-62
2021/08/29 08:09:12;;;;;;;6.77;5.00;;;;;;;;;;5120790;28;20200;-62
2021/08/29 08:11:39;;;;;;;7.20;4.93;;;;;;;;;;5120257;28;20249;-62
2021/08/29 08:14:07;;;;;;;6.27;5.40;;;;;;;;;;5120064;28;20315;-61
2021/08/29 08:16:35;;;;;;;5.53;4.63;;;;;;;;;;5119826;28;20299;-63
2021/08/29 08:19:05;;;;;;;7.97;6.10;;;;;;;;;;5119887;28;20201;-63
2021/08/29 08:21:33;;;;;;;6.80;5.70;;;;;;;;;;5119382;28;20200;-63
2021/08/29 08:24:01;;;;;;;6.57;4.70;;;;;;;;;;5119733;28;20224;-63
2021/08/29 08:26:29;;;;;;;5.93;5.10;;;;;;;;;;5111457;28;20209;-63
2021/08/29 08:28:57;;;;;;;5.37;4.87;;;;;;;;;;5099510;28;20288;-63
2021/08/29 08:31:25;;;;;;;6.73;4.60;;;;;;;;;;5099037;28;20206;-63
2021/08/29 08:33:53;;;;;;;7.47;5.17;;;;;;;;;;5098813;28;20634;-63
2021/08/29 08:36:23;;;;;;;5.07;4.10;;;;;;;;;;5099329;28;20216;-63
2021/08/29 08:38:50;;;;;;;5.10;4.27;;;;;;;;;;5098827;28;20575;-63
2021/08/29 08:41:19;;;;;;;5.50;4.73;;;;;;;;;;5099135;28;20233;-63
2021/08/29 08:43:47;;;;;;;6.33;4.50;;;;;;;;;;5098919;28;20631;-63
2021/08/29 08:46:17;;;;;;;4.87;4.37;;;;;;;;;;5098553;28;20209;-63
2021/08/29 08:48:48;;;;;;;5.37;3.90;;;;;;;;;;5098854;28;20264;-63
2021/08/29 08:51:18;;;;;;;4.87;4.37;;;;;;;;;;5115206;28;20317;-63
2021/08/29 08:53:48;;;;;;;4.50;4.10;;;;;;;;;;5118515;28;20229;-63
2021/08/29 08:56:17;;;;;;;6.43;4.90;;;;;;;;;;5118961;28;20207;-63
2021/08/29 08:58:45;;;;;;;8.27;5.37;;;;;;;;;;5118962;28;20199;-63
2021/08/29 09:01:13;;;;;;;13.60;7.30;;;;;;;;;;5118572;28;20207;-63
2021/08/29 09:03:42;;;;;;;9.40;5.20;;;;;;;;;;5118538;28;20203;-63
2021/08/29 09:06:11;;;;;;;4.27;3.87;;;;;;;;;;5118902;28;20367;-63
2021/08/29 09:08:38;;;;;;;4.00;3.60;;;;;;;;;;5118799;28;20670;-63
2021/08/29 09:11:08;;;;;;;4.90;3.83;;;;;;;;;;5110278;28;20226;-63
2021/08/29 09:13:57;;;;;;;5.77;3.37;;;;;;;;;;5118726;28;20197;-63
2021/08/29 09:16:26;;;;;;;5.77;3.37;;;;;;;;;;5118190;28;20205;-63
2021/08/29 09:18:55;;;;;;;4.30;3.80;;;;;;;;;;5118778;28;20258;-63
2021/08/29 09:21:24;;;;;;;3.87;3.47;;;;;;;;;;5118691;28;20219;-63
2021/08/29 09:23:52;;;;;;;4.03;3.63;;;;;;;;;;5118510;28;20227;-63
2021/08/29 09:26:23;;;;;;;3.27;3.00;;;;;;;;;;5118868;28;20205;-63
2021/08/29 09:28:51;;;;;;;5.00;3.80;;;;;;;;;;5118665;28;20209;-63
2021/08/29 09:31:19;;;;;;;3.53;3.23;;;;;;;;;;5118610;28;20209;-63
2021/08/29 09:33:58;;;;;;;3.35;3.05;;;;;;;;;;5118186;28;20228;-63
2021/08/29 09:36:30;;;;;;;3.47;2.90;;;;;;;;;;5118725;28;20212;-63
2021/08/29 09:39:09;;;;;;;3.37;3.00;;;;;;;;;;5118656;28;20204;-63
2021/08/29 09:41:39;;;;;;;2.73;2.50;;;;;;;;;;5118339;28;20209;-63
2021/08/29 09:44:07;;;;;;;3.07;2.60;;;;;;;;;;5118123;28;20331;-63
2021/08/29 09:46:36;;;;;;;3.67;3.37;;;;;;;;;;5117694;28;20223;-63
2021/08/29 09:49:04;;;;;;;3.40;3.10;;;;;;;;;;5118177;28;20209;-63
2021/08/29 09:51:32;;;;;;;4.93;3.40;;;;;;;;;;5104947;28;20284;-63
2021/08/29 09:54:01;;;;;;;3.17;2.87;;;;;;;;;;5118077;28;20260;-63
2021/08/29 09:56:29;;;;;;;3.03;2.73;;;;;;;;;;5118290;28;20287;-63
2021/08/29 09:58:59;;;;;;;3.50;3.20;;;;;;;;;;5117947;28;20223;-63
2021/08/29 10:01:27;;;;;;;4.03;3.40;;;;;;;;;;5117819;28;20211;-63
2021/08/29 10:03:55;;;;;;;3.90;3.50;;;;;;;;;;5118188;28;20220;-63
2021/08/29 10:06:25;;;;;;;4.70;3.40;;;;;;;;;;5117952;28;20201;-63
2021/08/29 10:08:54;;;;;;;3.20;2.90;;;;;;;;;;5118485;28;20209;-62
2021/08/29 10:11:23;;;;;;;4.60;2.73;;;;;;;;;;5118021;28;20211;-63
2021/08/29 10:13:52;;;;;;;2.40;2.20;;;;;;;;;;5118208;28;20632;-63
2021/08/29 10:16:22;;;;;;;3.10;2.70;;;;;;;;;;5117767;28;20224;-63
2021/08/29 10:18:51;;;;;;;2.90;2.47;;;;;;;;;;5117933;28;20237;-63
2021/08/29 10:21:23;;;;;;;3.80;2.77;;;;;;;;;;5117608;28;20579;-63
2021/08/29 10:23:52;;;;;;;2.70;2.60;;;;;;;;;;5118094;28;20229;-63
2021/08/29 10:26:22;;;;;;;2.83;2.63;;;;;;;;;;5097927;28;20197;-63
2021/08/29 10:28:52;;;;;;;3.07;2.50;;;;;;;;;;5097172;28;20578;-63
2021/08/29 10:31:26;;;;;;;3.60;2.70;;;;;;;;;;5097516;28;20213;-63
2021/08/29 10:33:55;;;;;;;4.13;3.10;;;;;;;;;;5097548;28;20268;-62
2021/08/29 10:36:24;;;;;;;2.50;2.30;;;;;;;;;;5097433;28;20235;-63
2021/08/29 10:38:51;;;;;;;2.93;2.73;;;;;;;;;;5097259;28;20673;-63
2021/08/29 10:41:21;;;;;;;5.10;2.97;;;;;;;;;;5097420;28;20220;-63
2021/08/29 10:43:49;;;;;;;2.50;2.30;;;;;;;;;;5098600;28;20235;-63
2021/08/29 10:46:17;;;;;;;3.60;2.60;;;;;;;;;;5101041;28;20204;-63
2021/08/29 10:48:47;;;;;;;3.50;2.77;;;;;;;;;;5101393;28;20213;-64
2021/08/29 10:51:16;;;;;;;2.60;2.40;;;;;;;;;;5108495;28;20708;-63
2021/08/29 10:53:49;;;;;;;2.60;2.40;;;;;;;;;;5120806;28;20235;-63
2021/08/29 10:56:29;;;;;;;2.60;2.40;;;;;;;;;;5121658;28;20234;-63
2021/08/29 10:59:15;;;;;;;2.57;2.37;;;;;;;;;;5121240;28;20207;-63
2021/08/29 11:01:45;;;;;;;3.77;2.70;;;;;;;;;;5121211;28;20201;-63
2021/08/29 11:04:32;;;;;;;2.73;2.47;;;;;;;;;;5121597;28;20225;-63
2021/08/29 11:07:06;;;;;;;5.27;3.13;;;;;;;;;;5121509;28;20208;-63
2021/08/29 11:09:46;;;;;;;4.07;2.50;;;;;;;;;;5121475;28;20243;-63
2021/08/29 11:12:30;;;;;;;2.63;2.43;;;;;;;;;;5121098;28;20723;-63
2021/08/29 11:14:59;;;;;;;3.20;2.33;;;;;;;;;;5120724;28;20661;-63
2021/08/29 11:17:28;;;;;;;2.70;2.23;;;;;;;;;;5120895;28;20288;-63
2021/08/29 11:20:09;;;;;;;2.80;2.50;;;;;;;;;;5121307;28;20209;-63
2021/08/29 11:22:40;;;;;;;2.67;2.47;;;;;;;;;;5120968;28;20287;-63
2021/08/29 11:25:15;;;;;;;2.07;1.97;;;;;;;;;;5120868;28;20213;-63
2021/08/29 11:28:00;;;;;;;2.43;2.23;;;;;;;;;;5101827;28;20288;-62
2021/08/29 11:30:43;;;;;;;5.77;2.63;;;;;;;;;;5100174;28;20288;-60
2021/08/29 11:33:12;;;;;;;9.03;5.00;;;;;;;;;;5107408;28;20202;-62
2021/08/29 11:35:45;;;;;;;7.40;3.50;;;;;;;;;;5108529;28;20217;-61
2021/08/29 11:38:15;;;;;;;3.30;2.20;;;;;;;;;;5105614;28;20285;-61
2021/08/29 11:40:58;;;;;;;2.53;2.20;;;;;;;;;;5100145;28;20666;-64
2021/08/29 11:43:37;;;;;;;2.60;2.40;;;;;;;;;;5100146;28;20205;-61
2021/08/29 11:46:10;;;;;;;2.27;2.17;;;;;;;;;;5099687;28;20202;-62
2021/08/29 11:48:48;;;;;;;3.60;2.00;;;;;;;;;;5100109;28;20269;-62
2021/08/29 11:51:23;;;;;;;2.77;2.43;;;;;;;;;;5108094;28;20241;-63
2021/08/29 11:53:52;;;;;;;2.27;2.07;;;;;;;;;;5119724;28;20311;-62
2021/08/29 11:56:22;;;;;;;1.93;1.80;;;;;;;;;;5119385;28;20231;-61
2021/08/29 11:58:50;;;;;;;3.03;2.03;;;;;;;;;;5120132;28;20201;-61
2021/08/29 12:01:19;;;;;;;2.57;2.37;;;;;;;;;;5108736;28;20193;-61
2021/08/29 12:03:47;;;;;;;2.17;1.77;;;;;;;;;;5107620;28;20598;-64
2021/08/29 12:06:17;;;;;;;3.20;2.47;;;;;;;;;;5108990;28;20228;-63
2021/08/29 12:08:53;;;;;;;2.00;1.90;;;;;;;;;;5108555;28;20223;-60
2021/08/29 12:11:22;;;;;;;1.77;1.67;;;;;;;;;;5107868;28;20623;-60
2021/08/29 12:13:51;;;;;;;2.70;2.50;;;;;;;;;;5099428;28;20221;-62
2021/08/29 12:16:19;;;;;;;2.80;2.07;;;;;;;;;;5100637;28;20232;-61
2021/08/29 12:18:48;;;;;;;2.70;2.13;;;;;;;;;;5102144;28;20210;-63
2021/08/29 12:21:16;;;;;;;2.77;2.50;;;;;;;;;;5099887;28;20206;-63
2021/08/29 12:23:44;;;;;;;2.07;1.87;;;;;;;;;;5100051;28;20588;-63
2021/08/29 12:26:19;;;;;;;2.30;2.10;;;;;;;;;;5112822;28;20772;-63
2021/08/29 12:28:59;;;;;;;2.30;2.13;;;;;;;;;;5099180;28;20617;-63
2021/08/29 12:31:27;;;;;;;3.20;2.07;;;;;;;;;;5099192;28;20201;-63
2021/08/29 12:33:55;;;;;;;3.33;1.73;;;;;;;;;;5099310;28;20317;-63
2021/08/29 12:36:24;;;;;;;1.60;1.50;;;;;;;;;;5098873;28;20249;-62
2021/08/29 12:38:53;;;;;;;2.10;1.90;;;;;;;;;;5099381;28;20205;-62
2021/08/29 12:41:21;;;;;;;3.00;1.70;;;;;;;;;;5099088;28;20206;-63
2021/08/29 12:43:51;;;;;;;2.07;1.70;;;;;;;;;;5098763;28;20312;-63
2021/08/29 12:46:19;;;;;;;2.27;2.17;;;;;;;;;;5098664;28;20206;-61
2021/08/29 12:48:49;;;;;;;2.33;1.77;;;;;;;;;;5099081;28;20262;-61
2021/08/29 12:51:18;;;;;;;1.93;1.50;;;;;;;;;;5106015;28;20237;-61
2021/08/29 12:53:45;;;;;;;1.87;1.77;;;;;;;;;;5118665;28;20685;-61
2021/08/29 12:56:20;;;;;;;2.10;1.73;;;;;;;;;;5119112;28;20228;-61
2021/08/29 12:58:48;;;;;;;2.00;1.90;;;;;;;;;;5119254;28;20213;-60
2021/08/29 13:01:18;;;;;;;1.73;1.63;;;;;;;;;;5118694;28;20568;-62
2021/08/29 13:03:48;;;;;;;2.30;2.10;;;;;;;;;;5119144;28;20221;-62
2021/08/29 13:06:18;;;;;;;2.30;1.80;;;;;;;;;;5112101;28;20203;-63
2021/08/29 13:08:46;;;;;;;1.70;1.60;;;;;;;;;;5107478;28;20198;-62
2021/08/29 13:11:15;;;;;;;2.17;1.90;;;;;;;;;;5106813;28;20203;-62
2021/08/29 13:13:46;;;;;;;1.80;1.70;;;;;;;;;;5105715;28;20255;-62
2021/08/29 13:16:14;;;;;;;2.10;2.00;;;;;;;;;;5103468;28;20672;-62
2021/08/29 13:18:44;;;;;;;52.67;29.27;;;;;;;;;;5107096;28;20220;-62
2021/08/29 13:21:23;;;;;;;6.97;3.10;;;;;;;;;;5106184;28;20213;-62
2021/08/29 13:23:51;;;;;;;4.37;2.47;;;;;;;;;;5105626;28;20220;-62
2021/08/29 13:26:21;;;;;;;2.20;2.00;;;;;;;;;;5108731;28;20194;-62
2021/08/29 13:28:54;;;;;;;2.00;1.70;;;;;;;;;;5107324;28;20724;-62
2021/08/29 13:31:27;;;;;;;2.03;1.73;;;;;;;;;;5105139;28;20211;-62
2021/08/29 13:34:00;;;;;;;2.60;1.80;;;;;;;;;;5105031;28;20592;-62
2021/08/29 13:36:28;;;;;;;1.90;1.70;;;;;;;;;;5107968;28;20675;-62
2021/08/29 13:38:56;;;;;;;1.57;1.47;;;;;;;;;;5109445;28;20204;-62
2021/08/29 13:41:27;;;;;;;2.00;1.90;;;;;;;;;;5106876;28;20197;-62
2021/08/29 13:43:58;;;;;;;1.40;1.30;;;;;;;;;;5106790;28;20227;-62
2021/08/29 13:46:27;;;;;;;2.70;1.73;;;;;;;;;;5105698;28;20641;-62
2021/08/29 13:48:55;;;;;;;2.70;1.40;;;;;;;;;;5107545;28;20233;-62
2021/08/29 13:51:24;;;;;;;2.63;1.47;;;;;;;;;;5107341;28;20201;-62
2021/08/29 13:53:53;;;;;;;2.17;1.50;;;;;;;;;;5097109;28;20308;-60
2021/08/29 13:56:21;;;;;;;1.67;1.57;;;;;;;;;;5097761;28;20209;-62
2021/08/29 13:58:49;;;;;;;2.30;1.70;;;;;;;;;;5097723;28;20562;-61
2021/08/29 14:01:17;;;;;;;1.40;1.30;;;;;;;;;;5097274;28;20691;-62
2021/08/29 14:03:46;;;;;;;1.47;1.37;;;;;;;;;;5097711;28;20662;-61
2021/08/29 14:06:14;;;;;;;1.80;1.70;;;;;;;;;;5097402;28;20717;-60
2021/08/29 14:08:43;;;;;;;2.83;1.70;;;;;;;;;;5096743;28;20681;-61
2021/08/29 14:11:11;;;;;;;1.60;1.50;;;;;;;;;;5100313;28;20201;-61
2021/08/29 14:13:39;;;;;;;1.70;1.60;;;;;;;;;;5117746;28;20660;-60
2021/08/29 14:16:10;;;;;;;2.57;1.80;;;;;;;;;;5117718;28;20230;-62
2021/08/29 14:18:38;;;;;;;1.97;1.50;;;;;;;;;;5119075;28;20315;-61
2021/08/29 14:21:06;;;;;;;1.47;1.40;;;;;;;;;;5122282;28;20215;-63
2021/08/29 14:23:34;;;;;;;2.10;1.63;;;;;;;;;;5119286;28;20222;-60
2021/08/29 14:26:04;;;;;;;1.50;1.40;;;;;;;;;;5112464;28;20204;-62
2021/08/29 14:28:32;;;;;;;1.80;1.70;;;;;;;;;;5108357;28;20659;-62
2021/08/29 14:31:01;;;;;;;1.67;1.57;;;;;;;;;;5109199;28;20202;-61
2021/08/29 14:33:29;;;;;;;1.60;1.50;;;;;;;;;;5110255;28;20197;-62
2021/08/29 14:35:57;;;;;;;2.87;2.10;;;;;;;;;;5113620;28;20213;-62
2021/08/29 14:38:25;;;;;;;1.70;1.60;;;;;;;;;;5121675;28;20227;-62
2021/08/29 14:40:52;;;;;;;3.30;1.70;;;;;;;;;;5117534;28;20665;-61
2021/08/29 14:43:22;;;;;;;1.57;1.47;;;;;;;;;;5109501;28;20199;-61
2021/08/29 14:45:50;;;;;;;1.70;1.60;;;;;;;;;;5100907;28;20262;-61
2021/08/29 14:48:18;;;;;;;1.80;1.70;;;;;;;;;;5100788;28;20193;-61
2021/08/29 14:50:46;;;;;;;2.00;1.90;;;;;;;;;;5107995;28;20228;-61
2021/08/29 14:53:14;;;;;;;2.50;1.67;;;;;;;;;;5109219;28;20202;-62
2021/08/29 14:55:42;;;;;;;2.13;2.00;;;;;;;;;;5106019;28;20239;-62
2021/08/29 14:58:09;;;;;;;2.10;2.00;;;;;;;;;;5109181;28;20232;-60